Weather at Summit Airport

Public forecast

Using degrees Fahrenheit for public forecast. Weather courtesy of forecast.io.

Closest aviation weather report (METAR) to Summit Airport

Closest report is New Castle Airport, 10.9 nm (20.1 km) NNE. Retrieved 2020/10/01 17:51 UTC (16 minutes ago):

KILG 011751Z 28010KT 10SM CLR 23/11 A2993 RMK AO2 SLP133 T02280111 10233 20133 58005

Closest aviation forecast (TAF) to Summit Airport

Closest forecast is New Castle Airport, 10.9 nm (20.1 km) NNE. Retrieved 2020/10/01 18:42 UTC (0 seconds ago):

TAF KILG 011740Z 0118/0218 29006KT P6SM SCT120 FM012300 VRB03KT P6SM BKN070 FM020500 32005KT P6SM -SHRA OVC050 FM021300 32007KT P6SM SCT090